sensor_id;sensor_type;location;lat;lon;timestamp;P1;durP1;ratioP1;P2;durP2;ratioP2
6840;SDS011;3458;53.678;14.080;2023-02-23T00:02:14;14.97;;;8.23;;
6840;SDS011;3458;53.678;14.080;2023-02-23T00:04:39;12.23;;;7.47;;
6840;SDS011;3458;53.678;14.080;2023-02-23T00:07:06;18.83;;;8.50;;
6840;SDS011;3458;53.678;14.080;2023-02-23T00:09:31;24.67;;;9.17;;
6840;SDS011;3458;53.678;14.080;2023-02-23T00:12:00;16.73;;;8.40;;
6840;SDS011;3458;53.678;14.080;2023-02-23T00:14:32;26.33;;;7.87;;
6840;SDS011;3458;53.678;14.080;2023-02-23T00:16:58;14.23;;;8.07;;
6840;SDS011;3458;53.678;14.080;2023-02-23T00:19:24;18.00;;;7.67;;
6840;SDS011;3458;53.678;14.080;2023-02-23T00:21:50;20.87;;;8.43;;
6840;SDS011;3458;53.678;14.080;2023-02-23T00:24:16;16.00;;;8.37;;
6840;SDS011;3458;53.678;14.080;2023-02-23T00:26:45;16.07;;;8.97;;
6840;SDS011;3458;53.678;14.080;2023-02-23T00:29:13;16.40;;;8.47;;
6840;SDS011;3458;53.678;14.080;2023-02-23T00:31:43;14.80;;;8.20;;
6840;SDS011;3458;53.678;14.080;2023-02-23T00:34:09;18.63;;;8.33;;
6840;SDS011;3458;53.678;14.080;2023-02-23T00:36:36;16.90;;;8.60;;
6840;SDS011;3458;53.678;14.080;2023-02-23T00:39:04;15.83;;;8.43;;
6840;SDS011;3458;53.678;14.080;2023-02-23T00:41:42;16.23;;;8.60;;
6840;SDS011;3458;53.678;14.080;2023-02-23T00:44:09;21.23;;;9.40;;
6840;SDS011;3458;53.678;14.080;2023-02-23T00:46:34;17.43;;;8.60;;
6840;SDS011;3458;53.678;14.080;2023-02-23T00:48:59;14.97;;;8.60;;
6840;SDS011;3458;53.678;14.080;2023-02-23T00:51:26;16.97;;;8.33;;
6840;SDS011;3458;53.678;14.080;2023-02-23T00:53:54;19.47;;;8.33;;
6840;SDS011;3458;53.678;14.080;2023-02-23T00:56:21;19.10;;;9.53;;
6840;SDS011;3458;53.678;14.080;2023-02-23T00:58:46;12.60;;;8.00;;
6840;SDS011;3458;53.678;14.080;2023-02-23T01:01:12;17.43;;;8.70;;
6840;SDS011;3458;53.678;14.080;2023-02-23T01:03:39;17.20;;;8.67;;
6840;SDS011;3458;53.678;14.080;2023-02-23T01:06:06;17.80;;;9.30;;
6840;SDS011;3458;53.678;14.080;2023-02-23T01:08:34;14.80;;;8.80;;
6840;SDS011;3458;53.678;14.080;2023-02-23T01:11:07;19.30;;;9.17;;
6840;SDS011;3458;53.678;14.080;2023-02-23T01:13:34;17.97;;;8.93;;
6840;SDS011;3458;53.678;14.080;2023-02-23T01:16:04;17.70;;;9.17;;
6840;SDS011;3458;53.678;14.080;2023-02-23T01:18:31;16.40;;;8.60;;
6840;SDS011;3458;53.678;14.080;2023-02-23T01:20:58;16.90;;;8.53;;
6840;SDS011;3458;53.678;14.080;2023-02-23T01:23:24;21.30;;;9.90;;
6840;SDS011;3458;53.678;14.080;2023-02-23T01:25:50;20.40;;;10.20;;
6840;SDS011;3458;53.678;14.080;2023-02-23T01:28:15;16.30;;;9.03;;
6840;SDS011;3458;53.678;14.080;2023-02-23T01:30:41;18.67;;;9.60;;
6840;SDS011;3458;53.678;14.080;2023-02-23T01:33:06;20.17;;;9.73;;
6840;SDS011;3458;53.678;14.080;2023-02-23T01:35:32;17.83;;;9.77;;
6840;SDS011;3458;53.678;14.080;2023-02-23T01:37:58;16.30;;;9.67;;
6840;SDS011;3458;53.678;14.080;2023-02-23T01:40:24;20.37;;;9.20;;
6840;SDS011;3458;53.678;14.080;2023-02-23T01:42:55;21.00;;;9.30;;
6840;SDS011;3458;53.678;14.080;2023-02-23T01:45:25;17.50;;;9.30;;
6840;SDS011;3458;53.678;14.080;2023-02-23T01:48:00;19.23;;;10.00;;
6840;SDS011;3458;53.678;14.080;2023-02-23T01:50:43;19.10;;;8.80;;
6840;SDS011;3458;53.678;14.080;2023-02-23T01:53:13;18.70;;;9.07;;
6840;SDS011;3458;53.678;14.080;2023-02-23T01:55:41;20.80;;;10.07;;
6840;SDS011;3458;53.678;14.080;2023-02-23T01:58:09;21.20;;;9.27;;
6840;SDS011;3458;53.678;14.080;2023-02-23T02:00:43;23.03;;;10.33;;
6840;SDS011;3458;53.678;14.080;2023-02-23T02:03:14;21.27;;;9.73;;
6840;SDS011;3458;53.678;14.080;2023-02-23T02:05:50;18.03;;;9.00;;
6840;SDS011;3458;53.678;14.080;2023-02-23T02:08:16;14.37;;;8.50;;
6840;SDS011;3458;53.678;14.080;2023-02-23T02:10:43;19.30;;;9.00;;
6840;SDS011;3458;53.678;14.080;2023-02-23T02:13:10;17.10;;;9.97;;
6840;SDS011;3458;53.678;14.080;2023-02-23T02:24:25;25.13;;;10.73;;
6840;SDS011;3458;53.678;14.080;2023-02-23T02:27:23;20.83;;;8.93;;
6840;SDS011;3458;53.678;14.080;2023-02-23T02:30:16;17.40;;;8.63;;
6840;SDS011;3458;53.678;14.080;2023-02-23T02:33:05;19.13;;;9.87;;
6840;SDS011;3458;53.678;14.080;2023-02-23T02:38:58;18.27;;;8.67;;
6840;SDS011;3458;53.678;14.080;2023-02-23T02:41:41;25.00;;;10.93;;
6840;SDS011;3458;53.678;14.080;2023-02-23T02:47:07;22.47;;;10.20;;
6840;SDS011;3458;53.678;14.080;2023-02-23T02:49:51;27.03;;;10.80;;
6840;SDS011;3458;53.678;14.080;2023-02-23T02:52:32;24.20;;;11.43;;
6840;SDS011;3458;53.678;14.080;2023-02-23T02:55:14;19.90;;;9.67;;
6840;SDS011;3458;53.678;14.080;2023-02-23T02:57:47;18.57;;;9.80;;
6840;SDS011;3458;53.678;14.080;2023-02-23T03:00:16;18.50;;;9.50;;
6840;SDS011;3458;53.678;14.080;2023-02-23T03:03:02;20.27;;;11.33;;
6840;SDS011;3458;53.678;14.080;2023-02-23T03:05:48;16.37;;;9.67;;
6840;SDS011;3458;53.678;14.080;2023-02-23T03:08:36;24.53;;;10.90;;
6840;SDS011;3458;53.678;14.080;2023-02-23T03:11:22;23.70;;;10.10;;
6840;SDS011;3458;53.678;14.080;2023-02-23T03:14:16;17.47;;;9.40;;
6840;SDS011;3458;53.678;14.080;2023-02-23T03:17:11;17.87;;;10.13;;
6840;SDS011;3458;53.678;14.080;2023-02-23T03:20:27;17.30;;;8.97;;
6840;SDS011;3458;53.678;14.080;2023-02-23T03:23:36;19.73;;;10.07;;
6840;SDS011;3458;53.678;14.080;2023-02-23T03:26:33;24.40;;;10.33;;
6840;SDS011;3458;53.678;14.080;2023-02-23T03:29:35;25.13;;;10.37;;
6840;SDS011;3458;53.678;14.080;2023-02-23T03:32:29;24.13;;;9.37;;
6840;SDS011;3458;53.678;14.080;2023-02-23T03:35:20;19.73;;;10.10;;
6840;SDS011;3458;53.678;14.080;2023-02-23T03:38:37;19.23;;;9.80;;
6840;SDS011;3458;53.678;14.080;2023-02-23T03:41:22;21.97;;;9.73;;
6840;SDS011;3458;53.678;14.080;2023-02-23T03:44:10;21.57;;;10.30;;
6840;SDS011;3458;53.678;14.080;2023-02-23T03:47:00;22.83;;;9.80;;
6840;SDS011;3458;53.678;14.080;2023-02-23T03:49:46;25.00;;;10.33;;
6840;SDS011;3458;53.678;14.080;2023-02-23T03:52:35;27.07;;;10.60;;
6840;SDS011;3458;53.678;14.080;2023-02-23T03:55:31;25.43;;;10.47;;
6840;SDS011;3458;53.678;14.080;2023-02-23T03:58:21;22.40;;;10.07;;
6840;SDS011;3458;53.678;14.080;2023-02-23T04:01:20;28.30;;;10.97;;
6840;SDS011;3458;53.678;14.080;2023-02-23T04:04:06;17.87;;;9.50;;
6840;SDS011;3458;53.678;14.080;2023-02-23T04:06:52;25.37;;;10.57;;
6840;SDS011;3458;53.678;14.080;2023-02-23T04:09:39;16.97;;;9.63;;
6840;SDS011;3458;53.678;14.080;2023-02-23T04:15:19;19.67;;;11.43;;
6840;SDS011;3458;53.678;14.080;2023-02-23T04:17:49;25.83;;;11.03;;
6840;SDS011;3458;53.678;14.080;2023-02-23T04:20:16;15.43;;;9.60;;
6840;SDS011;3458;53.678;14.080;2023-02-23T04:22:41;24.77;;;9.90;;
6840;SDS011;3458;53.678;14.080;2023-02-23T04:25:07;23.17;;;11.10;;
6840;SDS011;3458;53.678;14.080;2023-02-23T04:27:34;22.53;;;10.37;;
6840;SDS011;3458;53.678;14.080;2023-02-23T04:30:00;18.57;;;10.60;;
6840;SDS011;3458;53.678;14.080;2023-02-23T04:32:27;23.10;;;12.00;;
6840;SDS011;3458;53.678;14.080;2023-02-23T04:34:53;24.60;;;12.97;;
6840;SDS011;3458;53.678;14.080;2023-02-23T04:37:18;21.60;;;12.37;;
6840;SDS011;3458;53.678;14.080;2023-02-23T04:39:44;24.63;;;10.77;;
6840;SDS011;3458;53.678;14.080;2023-02-23T04:42:13;24.83;;;11.23;;
6840;SDS011;3458;53.678;14.080;2023-02-23T04:44:39;22.77;;;11.20;;
6840;SDS011;3458;53.678;14.080;2023-02-23T04:47:05;24.47;;;12.30;;
6840;SDS011;3458;53.678;14.080;2023-02-23T04:49:30;44.67;;;20.60;;
6840;SDS011;3458;53.678;14.080;2023-02-23T04:51:56;48.00;;;19.37;;
6840;SDS011;3458;53.678;14.080;2023-02-23T04:54:22;29.53;;;16.43;;
6840;SDS011;3458;53.678;14.080;2023-02-23T04:56:48;21.30;;;11.70;;
6840;SDS011;3458;53.678;14.080;2023-02-23T04:59:13;22.50;;;11.10;;
6840;SDS011;3458;53.678;14.080;2023-02-23T05:01:39;22.93;;;13.03;;
6840;SDS011;3458;53.678;14.080;2023-02-23T05:04:04;26.63;;;12.60;;
6840;SDS011;3458;53.678;14.080;2023-02-23T05:06:30;19.00;;;11.00;;
6840;SDS011;3458;53.678;14.080;2023-02-23T05:08:56;54.10;;;22.73;;
6840;SDS011;3458;53.678;14.080;2023-02-23T05:11:22;44.53;;;22.20;;
6840;SDS011;3458;53.678;14.080;2023-02-23T05:13:48;37.87;;;15.40;;
6840;SDS011;3458;53.678;14.080;2023-02-23T05:16:14;29.77;;;13.77;;
6840;SDS011;3458;53.678;14.080;2023-02-23T05:18:40;25.70;;;12.77;;
6840;SDS011;3458;53.678;14.080;2023-02-23T05:21:06;21.13;;;11.90;;
6840;SDS011;3458;53.678;14.080;2023-02-23T05:23:33;22.60;;;12.50;;
6840;SDS011;3458;53.678;14.080;2023-02-23T05:26:00;25.80;;;11.20;;
6840;SDS011;3458;53.678;14.080;2023-02-23T05:28:28;29.47;;;12.03;;
6840;SDS011;3458;53.678;14.080;2023-02-23T05:30:53;26.90;;;12.20;;
6840;SDS011;3458;53.678;14.080;2023-02-23T05:33:19;26.07;;;11.60;;
6840;SDS011;3458;53.678;14.080;2023-02-23T05:35:45;23.70;;;12.03;;
6840;SDS011;3458;53.678;14.080;2023-02-23T05:38:11;31.73;;;14.50;;
6840;SDS011;3458;53.678;14.080;2023-02-23T05:40:37;26.53;;;11.60;;
6840;SDS011;3458;53.678;14.080;2023-02-23T05:43:03;24.97;;;12.20;;
6840;SDS011;3458;53.678;14.080;2023-02-23T05:45:29;23.47;;;11.30;;
6840;SDS011;3458;53.678;14.080;2023-02-23T05:47:54;25.83;;;12.87;;
6840;SDS011;3458;53.678;14.080;2023-02-23T05:50:20;21.23;;;11.53;;
6840;SDS011;3458;53.678;14.080;2023-02-23T05:52:45;25.23;;;12.30;;
6840;SDS011;3458;53.678;14.080;2023-02-23T05:55:11;22.47;;;11.50;;
6840;SDS011;3458;53.678;14.080;2023-02-23T05:57:37;37.73;;;13.20;;
6840;SDS011;3458;53.678;14.080;2023-02-23T06:00:05;25.17;;;12.93;;
6840;SDS011;3458;53.678;14.080;2023-02-23T06:02:31;39.17;;;12.80;;
6840;SDS011;3458;53.678;14.080;2023-02-23T06:04:57;27.23;;;13.57;;
6840;SDS011;3458;53.678;14.080;2023-02-23T06:07:22;20.43;;;11.70;;
6840;SDS011;3458;53.678;14.080;2023-02-23T06:09:48;25.93;;;12.40;;
6840;SDS011;3458;53.678;14.080;2023-02-23T06:12:13;29.67;;;12.80;;
6840;SDS011;3458;53.678;14.080;2023-02-23T06:14:39;25.13;;;12.67;;
6840;SDS011;3458;53.678;14.080;2023-02-23T06:17:05;23.57;;;11.97;;
6840;SDS011;3458;53.678;14.080;2023-02-23T06:19:31;28.93;;;12.87;;
6840;SDS011;3458;53.678;14.080;2023-02-23T06:21:57;25.97;;;12.57;;
6840;SDS011;3458;53.678;14.080;2023-02-23T06:24:22;29.93;;;13.10;;
6840;SDS011;3458;53.678;14.080;2023-02-23T06:26:48;27.07;;;12.60;;
6840;SDS011;3458;53.678;14.080;2023-02-23T06:29:14;27.00;;;12.87;;
6840;SDS011;3458;53.678;14.080;2023-02-23T06:31:40;25.20;;;11.80;;
6840;SDS011;3458;53.678;14.080;2023-02-23T06:34:06;24.80;;;12.20;;
6840;SDS011;3458;53.678;14.080;2023-02-23T06:36:31;27.67;;;13.70;;
6840;SDS011;3458;53.678;14.080;2023-02-23T06:38:57;25.53;;;12.20;;
6840;SDS011;3458;53.678;14.080;2023-02-23T06:41:23;31.40;;;13.00;;
6840;SDS011;3458;53.678;14.080;2023-02-23T06:43:50;31.30;;;13.27;;
6840;SDS011;3458;53.678;14.080;2023-02-23T06:46:16;26.63;;;12.17;;
6840;SDS011;3458;53.678;14.080;2023-02-23T06:48:42;26.20;;;13.10;;
6840;SDS011;3458;53.678;14.080;2023-02-23T06:51:07;25.30;;;12.23;;
6840;SDS011;3458;53.678;14.080;2023-02-23T06:53:34;23.60;;;12.60;;
6840;SDS011;3458;53.678;14.080;2023-02-23T06:56:00;28.50;;;13.43;;
6840;SDS011;3458;53.678;14.080;2023-02-23T06:58:27;22.27;;;11.47;;
6840;SDS011;3458;53.678;14.080;2023-02-23T07:00:54;27.70;;;12.20;;
6840;SDS011;3458;53.678;14.080;2023-02-23T07:03:23;29.53;;;13.37;;
6840;SDS011;3458;53.678;14.080;2023-02-23T07:05:50;26.47;;;13.00;;
6840;SDS011;3458;53.678;14.080;2023-02-23T07:08:17;28.57;;;13.03;;
6840;SDS011;3458;53.678;14.080;2023-02-23T07:10:42;32.57;;;13.70;;
6840;SDS011;3458;53.678;14.080;2023-02-23T07:13:09;26.93;;;13.80;;
6840;SDS011;3458;53.678;14.080;2023-02-23T07:15:37;26.00;;;12.93;;
6840;SDS011;3458;53.678;14.080;2023-02-23T07:18:03;30.73;;;13.60;;
6840;SDS011;3458;53.678;14.080;2023-02-23T07:20:30;28.07;;;13.00;;
6840;SDS011;3458;53.678;14.080;2023-02-23T07:22:56;23.60;;;12.23;;
6840;SDS011;3458;53.678;14.080;2023-02-23T07:25:22;26.30;;;13.10;;
6840;SDS011;3458;53.678;14.080;2023-02-23T07:27:48;27.43;;;12.47;;
6840;SDS011;3458;53.678;14.080;2023-02-23T07:30:13;26.10;;;13.33;;
6840;SDS011;3458;53.678;14.080;2023-02-23T07:32:40;25.60;;;12.90;;
6840;SDS011;3458;53.678;14.080;2023-02-23T07:35:06;28.07;;;12.90;;
6840;SDS011;3458;53.678;14.080;2023-02-23T07:37:32;25.90;;;12.60;;
6840;SDS011;3458;53.678;14.080;2023-02-23T07:39:57;23.97;;;12.10;;
6840;SDS011;3458;53.678;14.080;2023-02-23T07:42:23;24.73;;;11.73;;
6840;SDS011;3458;53.678;14.080;2023-02-23T07:44:50;25.07;;;12.07;;
6840;SDS011;3458;53.678;14.080;2023-02-23T07:47:15;31.93;;;14.70;;
6840;SDS011;3458;53.678;14.080;2023-02-23T07:49:41;27.63;;;13.00;;
6840;SDS011;3458;53.678;14.080;2023-02-23T07:52:06;23.20;;;11.57;;
6840;SDS011;3458;53.678;14.080;2023-02-23T07:54:32;34.57;;;13.47;;
6840;SDS011;3458;53.678;14.080;2023-02-23T07:56:57;30.90;;;13.93;;
6840;SDS011;3458;53.678;14.080;2023-02-23T07:59:24;29.63;;;13.57;;
6840;SDS011;3458;53.678;14.080;2023-02-23T08:01:49;28.80;;;13.23;;
6840;SDS011;3458;53.678;14.080;2023-02-23T08:04:16;36.93;;;15.27;;
6840;SDS011;3458;53.678;14.080;2023-02-23T08:06:42;27.80;;;14.40;;
6840;SDS011;3458;53.678;14.080;2023-02-23T08:09:07;31.10;;;13.00;;
6840;SDS011;3458;53.678;14.080;2023-02-23T08:11:34;27.23;;;13.90;;
6840;SDS011;3458;53.678;14.080;2023-02-23T08:14:00;30.53;;;14.37;;
6840;SDS011;3458;53.678;14.080;2023-02-23T08:16:26;30.60;;;15.10;;
6840;SDS011;3458;53.678;14.080;2023-02-23T08:18:56;28.47;;;13.97;;
6840;SDS011;3458;53.678;14.080;2023-02-23T08:21:25;27.87;;;14.03;;
6840;SDS011;3458;53.678;14.080;2023-02-23T08:23:53;28.30;;;13.67;;
6840;SDS011;3458;53.678;14.080;2023-02-23T08:26:19;40.33;;;14.63;;
6840;SDS011;3458;53.678;14.080;2023-02-23T08:28:45;28.40;;;13.37;;
6840;SDS011;3458;53.678;14.080;2023-02-23T08:31:11;27.50;;;13.77;;
6840;SDS011;3458;53.678;14.080;2023-02-23T08:33:37;35.60;;;13.90;;
6840;SDS011;3458;53.678;14.080;2023-02-23T08:36:06;32.40;;;13.10;;
6840;SDS011;3458;53.678;14.080;2023-02-23T08:38:32;29.60;;;14.33;;
6840;SDS011;3458;53.678;14.080;2023-02-23T08:41:00;29.60;;;13.50;;
6840;SDS011;3458;53.678;14.080;2023-02-23T08:43:27;35.67;;;14.60;;
6840;SDS011;3458;53.678;14.080;2023-02-23T08:45:52;29.00;;;15.00;;
6840;SDS011;3458;53.678;14.080;2023-02-23T08:48:18;31.40;;;13.43;;
6840;SDS011;3458;53.678;14.080;2023-02-23T08:50:46;30.20;;;14.57;;
6840;SDS011;3458;53.678;14.080;2023-02-23T08:53:13;32.17;;;14.70;;
6840;SDS011;3458;53.678;14.080;2023-02-23T08:55:39;27.87;;;13.50;;
6840;SDS011;3458;53.678;14.080;2023-02-23T08:58:06;34.10;;;15.00;;
6840;SDS011;3458;53.678;14.080;2023-02-23T09:00:34;32.60;;;15.23;;
6840;SDS011;3458;53.678;14.080;2023-02-23T09:03:03;29.13;;;14.20;;
6840;SDS011;3458;53.678;14.080;2023-02-23T09:05:31;29.47;;;13.67;;
6840;SDS011;3458;53.678;14.080;2023-02-23T09:07:57;30.67;;;14.00;;
6840;SDS011;3458;53.678;14.080;2023-02-23T09:10:22;27.53;;;14.30;;
6840;SDS011;3458;53.678;14.080;2023-02-23T09:12:51;33.33;;;15.10;;
6840;SDS011;3458;53.678;14.080;2023-02-23T09:15:17;28.80;;;14.47;;
6840;SDS011;3458;53.678;14.080;2023-02-23T09:17:42;31.83;;;14.30;;
6840;SDS011;3458;53.678;14.080;2023-02-23T09:20:09;36.27;;;15.80;;
6840;SDS011;3458;53.678;14.080;2023-02-23T09:22:38;28.70;;;14.20;;
6840;SDS011;3458;53.678;14.080;2023-02-23T09:25:04;29.53;;;14.27;;
6840;SDS011;3458;53.678;14.080;2023-02-23T09:27:30;36.93;;;15.63;;
6840;SDS011;3458;53.678;14.080;2023-02-23T09:29:56;37.33;;;13.43;;
6840;SDS011;3458;53.678;14.080;2023-02-23T09:32:21;28.97;;;14.90;;
6840;SDS011;3458;53.678;14.080;2023-02-23T09:34:47;28.37;;;15.23;;
6840;SDS011;3458;53.678;14.080;2023-02-23T09:37:12;32.87;;;15.43;;
6840;SDS011;3458;53.678;14.080;2023-02-23T09:39:38;30.63;;;15.40;;
6840;SDS011;3458;53.678;14.080;2023-02-23T09:47:31;28.50;;;15.50;;
6840;SDS011;3458;53.678;14.080;2023-02-23T09:50:11;31.00;;;15.03;;
6840;SDS011;3458;53.678;14.080;2023-02-23T09:52:43;35.53;;;17.07;;
6840;SDS011;3458;53.678;14.080;2023-02-23T09:55:11;36.53;;;16.20;;
6840;SDS011;3458;53.678;14.080;2023-02-23T09:57:39;26.60;;;13.93;;
6840;SDS011;3458;53.678;14.080;2023-02-23T10:00:12;33.17;;;16.60;;
6840;SDS011;3458;53.678;14.080;2023-02-23T10:02:55;39.03;;;15.77;;
6840;SDS011;3458;53.678;14.080;2023-02-23T10:05:33;32.47;;;16.30;;
6840;SDS011;3458;53.678;14.080;2023-02-23T10:08:07;33.67;;;16.10;;
6840;SDS011;3458;53.678;14.080;2023-02-23T10:10:48;29.70;;;16.20;;
6840;SDS011;3458;53.678;14.080;2023-02-23T10:13:31;30.03;;;14.30;;
6840;SDS011;3458;53.678;14.080;2023-02-23T10:16:13;32.20;;;14.30;;
6840;SDS011;3458;53.678;14.080;2023-02-23T10:18:44;34.80;;;16.53;;
6840;SDS011;3458;53.678;14.080;2023-02-23T10:26:42;35.00;;;16.37;;
6840;SDS011;3458;53.678;14.080;2023-02-23T10:31:53;36.10;;;16.90;;
6840;SDS011;3458;53.678;14.080;2023-02-23T10:34:22;29.70;;;16.57;;
6840;SDS011;3458;53.678;14.080;2023-02-23T10:36:50;45.37;;;18.00;;
6840;SDS011;3458;53.678;14.080;2023-02-23T10:39:22;30.30;;;14.57;;
6840;SDS011;3458;53.678;14.080;2023-02-23T10:41:48;26.63;;;15.40;;
6840;SDS011;3458;53.678;14.080;2023-02-23T10:44:17;38.37;;;17.00;;
6840;SDS011;3458;53.678;14.080;2023-02-23T10:46:48;31.37;;;16.13;;
6840;SDS011;3458;53.678;14.080;2023-02-23T10:49:20;32.10;;;16.40;;
6840;SDS011;3458;53.678;14.080;2023-02-23T10:51:48;33.57;;;16.40;;
6840;SDS011;3458;53.678;14.080;2023-02-23T10:54:32;40.43;;;17.57;;
6840;SDS011;3458;53.678;14.080;2023-02-23T10:56:59;38.57;;;17.10;;
6840;SDS011;3458;53.678;14.080;2023-02-23T10:59:25;29.60;;;16.30;;
6840;SDS011;3458;53.678;14.080;2023-02-23T11:01:52;38.63;;;17.20;;
6840;SDS011;3458;53.678;14.080;2023-02-23T11:04:19;29.30;;;16.47;;
6840;SDS011;3458;53.678;14.080;2023-02-23T11:06:47;35.53;;;18.40;;
6840;SDS011;3458;53.678;14.080;2023-02-23T11:09:27;40.33;;;18.60;;
6840;SDS011;3458;53.678;14.080;2023-02-23T11:11:58;31.50;;;17.17;;
6840;SDS011;3458;53.678;14.080;2023-02-23T11:14:46;32.20;;;15.50;;
6840;SDS011;3458;53.678;14.080;2023-02-23T11:17:26;28.60;;;15.63;;
6840;SDS011;3458;53.678;14.080;2023-02-23T11:19:56;35.80;;;17.23;;
6840;SDS011;3458;53.678;14.080;2023-02-23T11:22:29;36.87;;;19.00;;
6840;SDS011;3458;53.678;14.080;2023-02-23T11:24:56;39.07;;;17.83;;
6840;SDS011;3458;53.678;14.080;2023-02-23T11:27:24;34.00;;;16.53;;
6840;SDS011;3458;53.678;14.080;2023-02-23T11:29:51;37.77;;;19.23;;
6840;SDS011;3458;53.678;14.080;2023-02-23T11:32:20;29.10;;;15.60;;
6840;SDS011;3458;53.678;14.080;2023-02-23T11:37:54;42.43;;;17.83;;
6840;SDS011;3458;53.678;14.080;2023-02-23T11:42:51;39.87;;;19.57;;
6840;SDS011;3458;53.678;14.080;2023-02-23T11:45:19;36.00;;;16.60;;
6840;SDS011;3458;53.678;14.080;2023-02-23T11:47:48;33.30;;;16.53;;
6840;SDS011;3458;53.678;14.080;2023-02-23T11:50:20;43.93;;;20.27;;
6840;SDS011;3458;53.678;14.080;2023-02-23T11:53:31;36.37;;;18.23;;
6840;SDS011;3458;53.678;14.080;2023-02-23T11:55:39;41.50;;;17.40;;
6840;SDS011;3458;53.678;14.080;2023-02-23T12:01:17;45.13;;;18.53;;
6840;SDS011;3458;53.678;14.080;2023-02-23T12:03:58;39.53;;;17.03;;
6840;SDS011;3458;53.678;14.080;2023-02-23T12:06:24;38.70;;;18.03;;
6840;SDS011;3458;53.678;14.080;2023-02-23T12:11:54;41.57;;;19.23;;
6840;SDS011;3458;53.678;14.080;2023-02-23T12:14:36;38.40;;;18.90;;
6840;SDS011;3458;53.678;14.080;2023-02-23T12:17:20;53.60;;;18.77;;
6840;SDS011;3458;53.678;14.080;2023-02-23T12:19:54;45.17;;;19.80;;
6840;SDS011;3458;53.678;14.080;2023-02-23T12:22:34;50.53;;;21.43;;
6840;SDS011;3458;53.678;14.080;2023-02-23T12:25:04;47.50;;;21.30;;
6840;SDS011;3458;53.678;14.080;2023-02-23T12:27:47;48.63;;;21.00;;
6840;SDS011;3458;53.678;14.080;2023-02-23T12:30:49;42.87;;;20.47;;
6840;SDS011;3458;53.678;14.080;2023-02-23T12:33:34;49.33;;;19.53;;
6840;SDS011;3458;53.678;14.080;2023-02-23T12:36:10;52.10;;;20.57;;
6840;SDS011;3458;53.678;14.080;2023-02-23T12:41:44;59.23;;;24.20;;
6840;SDS011;3458;53.678;14.080;2023-02-23T12:47:22;49.70;;;21.47;;
6840;SDS011;3458;53.678;14.080;2023-02-23T12:50:12;49.47;;;19.70;;
6840;SDS011;3458;53.678;14.080;2023-02-23T12:52:44;56.20;;;22.30;;
6840;SDS011;3458;53.678;14.080;2023-02-23T12:58:23;47.43;;;21.40;;
6840;SDS011;3458;53.678;14.080;2023-02-23T13:01:09;44.80;;;20.00;;
6840;SDS011;3458;53.678;14.080;2023-02-23T13:03:55;48.53;;;20.37;;
6840;SDS011;3458;53.678;14.080;2023-02-23T13:06:44;46.40;;;20.20;;
6840;SDS011;3458;53.678;14.080;2023-02-23T13:12:12;45.10;;;20.27;;
6840;SDS011;3458;53.678;14.080;2023-02-23T13:20:22;53.63;;;18.43;;
6840;SDS011;3458;53.678;14.080;2023-02-23T13:22:57;55.30;;;21.00;;
6840;SDS011;3458;53.678;14.080;2023-02-23T13:25:45;50.10;;;20.30;;
6840;SDS011;3458;53.678;14.080;2023-02-23T13:28:19;58.83;;;21.60;;
6840;SDS011;3458;53.678;14.080;2023-02-23T13:30:52;53.13;;;22.30;;
6840;SDS011;3458;53.678;14.080;2023-02-23T13:33:22;58.50;;;21.20;;
6840;SDS011;3458;53.678;14.080;2023-02-23T13:35:50;56.80;;;21.10;;
6840;SDS011;3458;53.678;14.080;2023-02-23T13:41:30;52.23;;;21.47;;
6840;SDS011;3458;53.678;14.080;2023-02-23T13:44:06;69.47;;;22.23;;
6840;SDS011;3458;53.678;14.080;2023-02-23T13:46:56;65.97;;;22.70;;
6840;SDS011;3458;53.678;14.080;2023-02-23T13:49:37;54.73;;;21.13;;
6840;SDS011;3458;53.678;14.080;2023-02-23T13:52:35;55.33;;;19.90;;
6840;SDS011;3458;53.678;14.080;2023-02-23T13:55:03;55.60;;;21.00;;
6840;SDS011;3458;53.678;14.080;2023-02-23T13:57:49;54.10;;;20.37;;
6840;SDS011;3458;53.678;14.080;2023-02-23T14:00:17;55.40;;;21.43;;
6840;SDS011;3458;53.678;14.080;2023-02-23T14:02:44;55.23;;;21.30;;
6840;SDS011;3458;53.678;14.080;2023-02-23T14:07:52;49.07;;;21.00;;
6840;SDS011;3458;53.678;14.080;2023-02-23T14:10:26;50.10;;;21.10;;
6840;SDS011;3458;53.678;14.080;2023-02-23T14:18:03;52.60;;;19.97;;
6840;SDS011;3458;53.678;14.080;2023-02-23T14:20:54;53.83;;;19.40;;
6840;SDS011;3458;53.678;14.080;2023-02-23T14:25:51;46.70;;;19.50;;
6840;SDS011;3458;53.678;14.080;2023-02-23T14:28:38;48.53;;;18.37;;
6840;SDS011;3458;53.678;14.080;2023-02-23T14:41:25;41.80;;;17.53;;
6840;SDS011;3458;53.678;14.080;2023-02-23T14:44:27;50.77;;;19.57;;
6840;SDS011;3458;53.678;14.080;2023-02-23T14:47:01;45.10;;;19.00;;
6840;SDS011;3458;53.678;14.080;2023-02-23T14:49:31;44.17;;;20.70;;
6840;SDS011;3458;53.678;14.080;2023-02-23T14:52:04;59.03;;;20.10;;
6840;SDS011;3458;53.678;14.080;2023-02-23T14:54:33;51.00;;;20.53;;
6840;SDS011;3458;53.678;14.080;2023-02-23T14:57:01;57.97;;;21.17;;
6840;SDS011;3458;53.678;14.080;2023-02-23T14:59:41;56.33;;;22.00;;
6840;SDS011;3458;53.678;14.080;2023-02-23T15:02:15;50.60;;;19.20;;
6840;SDS011;3458;53.678;14.080;2023-02-23T15:04:43;50.20;;;19.53;;
6840;SDS011;3458;53.678;14.080;2023-02-23T15:07:14;49.70;;;21.33;;
6840;SDS011;3458;53.678;14.080;2023-02-23T15:09:49;54.33;;;20.50;;
6840;SDS011;3458;53.678;14.080;2023-02-23T15:12:19;52.63;;;19.00;;
6840;SDS011;3458;53.678;14.080;2023-02-23T15:14:50;60.53;;;22.80;;
6840;SDS011;3458;53.678;14.080;2023-02-23T15:17:19;47.67;;;20.00;;
6840;SDS011;3458;53.678;14.080;2023-02-23T15:19:49;59.37;;;18.93;;
6840;SDS011;3458;53.678;14.080;2023-02-23T15:22:24;62.47;;;20.83;;
6840;SDS011;3458;53.678;14.080;2023-02-23T15:24:58;61.53;;;21.70;;
6840;SDS011;3458;53.678;14.080;2023-02-23T15:27:30;52.20;;;19.87;;
6840;SDS011;3458;53.678;14.080;2023-02-23T15:30:42;47.37;;;19.77;;
6840;SDS011;3458;53.678;14.080;2023-02-23T15:33:03;55.17;;;21.60;;
6840;SDS011;3458;53.678;14.080;2023-02-23T15:36:23;57.23;;;20.13;;
6840;SDS011;3458;53.678;14.080;2023-02-23T15:38:34;63.23;;;22.67;;
6840;SDS011;3458;53.678;14.080;2023-02-23T15:41:06;50.90;;;19.23;;
6840;SDS011;3458;53.678;14.080;2023-02-23T15:43:39;56.37;;;21.80;;
6840;SDS011;3458;53.678;14.080;2023-02-23T15:46:07;63.90;;;21.57;;
6840;SDS011;3458;53.678;14.080;2023-02-23T15:51:13;54.00;;;19.07;;
6840;SDS011;3458;53.678;14.080;2023-02-23T15:53:48;50.67;;;19.43;;
6840;SDS011;3458;53.678;14.080;2023-02-23T15:56:15;54.63;;;21.30;;
6840;SDS011;3458;53.678;14.080;2023-02-23T15:58:49;53.50;;;19.67;;
6840;SDS011;3458;53.678;14.080;2023-02-23T16:01:20;55.63;;;20.47;;
6840;SDS011;3458;53.678;14.080;2023-02-23T16:04:25;63.87;;;23.30;;
6840;SDS011;3458;53.678;14.080;2023-02-23T16:14:53;56.90;;;22.27;;
6840;SDS011;3458;53.678;14.080;2023-02-23T16:17:29;57.23;;;20.83;;
6840;SDS011;3458;53.678;14.080;2023-02-23T16:20:16;64.90;;;23.03;;
6840;SDS011;3458;53.678;14.080;2023-02-23T16:22:50;67.10;;;22.30;;
6840;SDS011;3458;53.678;14.080;2023-02-23T16:25:19;56.20;;;20.93;;
6840;SDS011;3458;53.678;14.080;2023-02-23T16:27:50;53.00;;;21.20;;
6840;SDS011;3458;53.678;14.080;2023-02-23T16:30:34;59.10;;;21.90;;
6840;SDS011;3458;53.678;14.080;2023-02-23T16:35:44;56.00;;;21.70;;
6840;SDS011;3458;53.678;14.080;2023-02-23T16:38:12;73.27;;;23.37;;
6840;SDS011;3458;53.678;14.080;2023-02-23T16:40:56;59.40;;;24.07;;
6840;SDS011;3458;53.678;14.080;2023-02-23T16:43:22;60.60;;;23.20;;